createdAt,value
2018-04-11T00:00:36.725Z,13.44
2018-04-11T00:01:36.745Z,13.36
2018-04-11T00:02:36.659Z,13.30
2018-04-11T00:03:36.690Z,13.29
2018-04-11T00:04:36.674Z,13.22
2018-04-11T00:05:36.697Z,13.28
2018-04-11T00:06:36.628Z,13.08
2018-04-11T00:07:36.647Z,13.12
2018-04-11T00:08:36.657Z,13.10
2018-04-11T00:09:36.686Z,13.07
2018-04-11T00:10:36.609Z,12.92
2018-04-11T00:11:36.752Z,12.93
2018-04-11T00:12:36.640Z,12.95
2018-04-11T00:13:36.737Z,12.97
2018-04-11T00:14:36.543Z,13.01
2018-04-11T00:15:36.567Z,12.90
2018-04-11T00:16:36.547Z,12.87
2018-04-11T00:17:36.525Z,12.87
2018-04-11T00:18:36.500Z,12.87
2018-04-11T00:19:36.513Z,12.83
2018-04-11T00:20:36.564Z,12.86
2018-04-11T00:21:36.469Z,12.92
2018-04-11T00:22:36.463Z,12.89
2018-04-11T00:23:36.469Z,12.90
2018-04-11T00:24:36.448Z,13.00
2018-04-11T00:25:36.462Z,13.01
2018-04-11T00:26:36.476Z,13.03
2018-04-11T00:27:36.436Z,13.03
2018-04-11T00:28:36.645Z,13.00
2018-04-11T00:29:36.399Z,12.87
2018-04-11T00:30:36.376Z,13.00
2018-04-11T00:31:36.416Z,12.95
2018-04-11T00:32:36.384Z,12.89
2018-04-11T00:33:36.348Z,12.77
2018-04-11T00:34:36.339Z,12.79
2018-04-11T00:35:36.330Z,12.77
2018-04-11T00:36:36.321Z,12.78
2018-04-11T00:37:38.361Z,12.87
2018-04-11T00:38:36.296Z,12.87
2018-04-11T00:39:36.289Z,12.96
2018-04-11T00:40:36.269Z,12.95
2018-04-11T00:41:36.270Z,12.95
2018-04-11T00:42:36.250Z,12.95
2018-04-11T00:43:36.260Z,12.95
2018-04-11T00:44:36.255Z,13.00
2018-04-11T00:45:36.504Z,12.93
2018-04-11T00:46:36.206Z,12.92
2018-04-11T00:47:36.197Z,12.93
2018-04-11T00:48:36.208Z,12.77
2018-04-11T00:49:36.231Z,12.78
2018-04-11T00:50:36.202Z,12.78
2018-04-11T00:51:36.142Z,12.82
2018-04-11T00:52:36.135Z,12.71
2018-04-11T00:53:36.197Z,12.59
2018-04-11T00:54:36.317Z,12.42
2018-04-11T00:55:36.340Z,12.38
2018-04-11T00:56:36.283Z,12.34
2018-04-11T00:57:36.888Z,12.23
2018-04-11T00:58:36.069Z,12.24
2018-04-11T00:59:36.057Z,12.14
2018-04-11T01:00:36.084Z,12.05
2018-04-11T01:01:36.069Z,12.05
2018-04-11T01:02:36.047Z,12.09
2018-04-11T01:03:36.073Z,12.07
2018-04-11T01:04:36.003Z,12.09
2018-04-11T01:05:36.006Z,12.01
2018-04-11T01:06:36.192Z,12.04
2018-04-11T01:07:35.995Z,11.98
2018-04-11T01:08:35.984Z,11.86
2018-04-11T01:09:35.956Z,11.88
2018-04-11T01:10:35.945Z,11.94
2018-04-11T01:11:35.995Z,11.88
2018-04-11T01:12:37.069Z,11.94
2018-04-11T01:13:35.921Z,11.95
2018-04-11T01:14:35.971Z,11.98
2018-04-11T01:15:35.891Z,11.95
2018-04-11T01:16:35.884Z,11.95
2018-04-11T01:17:35.964Z,11.99
2018-04-11T01:18:35.837Z,12.02
2018-04-11T01:19:35.841Z,11.99
2018-04-11T01:20:35.895Z,11.95
2018-04-11T01:21:35.832Z,11.95
2018-04-11T01:22:35.843Z,11.96
2018-04-11T01:23:35.794Z,11.94
2018-04-11T01:24:35.783Z,11.96
2018-04-11T01:25:35.761Z,11.85
2018-04-11T01:26:35.771Z,11.91
2018-04-11T01:27:35.737Z,11.85
2018-04-11T01:28:35.738Z,11.83
2018-04-11T01:29:35.734Z,11.76
2018-04-11T01:30:35.703Z,11.65
2018-04-11T01:31:36.863Z,11.57
2018-04-11T01:32:35.840Z,11.67
2018-04-11T01:33:35.696Z,11.58
2018-04-11T01:34:36.362Z,11.58
2018-04-11T01:35:35.680Z,11.61
2018-04-11T01:36:35.659Z,11.49
2018-04-11T01:37:35.616Z,11.60
2018-04-11T01:38:36.444Z,11.58
2018-04-11T01:39:35.607Z,11.52
2018-04-11T01:40:35.593Z,11.52
2018-04-11T01:41:35.614Z,11.46
2018-04-11T01:42:35.625Z,11.47
2018-04-11T01:43:36.552Z,11.46
2018-04-11T01:44:35.615Z,11.51
2018-04-11T01:45:35.552Z,11.47
2018-04-11T01:46:35.516Z,11.47
2018-04-11T01:47:35.493Z,11.51
2018-04-11T01:48:35.511Z,11.39
2018-04-11T01:49:35.481Z,11.46
2018-04-11T01:50:35.495Z,11.46
2018-04-11T01:51:35.592Z,11.49
2018-04-11T01:52:36.415Z,11.42
2018-04-11T01:53:35.474Z,11.42
2018-04-11T01:54:35.439Z,11.42
2018-04-11T01:55:35.408Z,11.44
2018-04-11T01:56:35.483Z,11.40
2018-04-11T01:57:35.399Z,11.40
2018-04-11T01:58:35.405Z,11.42
2018-04-11T01:59:35.381Z,11.33
2018-04-11T02:00:35.486Z,11.29
2018-04-11T02:01:35.338Z,11.15
2018-04-11T02:02:35.381Z,11.14
2018-04-11T02:03:35.362Z,11.09
2018-04-11T02:04:35.308Z,11.10
2018-04-11T02:05:35.316Z,11.00
2018-04-11T02:06:35.314Z,10.99
2018-04-11T02:07:35.286Z,10.97
2018-04-11T02:08:35.281Z,10.82
2018-04-11T02:09:35.243Z,10.92
2018-04-11T02:10:36.369Z,10.94
2018-04-11T02:11:35.216Z,10.88
2018-04-11T02:12:35.924Z,10.81
2018-04-11T02:13:35.211Z,10.82
2018-04-11T02:14:35.199Z,10.86
2018-04-11T02:15:35.167Z,10.86
2018-04-11T02:16:35.176Z,10.85
2018-04-11T02:17:35.160Z,10.86
2018-04-11T02:18:35.154Z,10.68
2018-04-11T02:19:35.194Z,10.85
2018-04-11T02:20:35.113Z,10.84
2018-04-11T02:21:35.089Z,10.78
2018-04-11T02:22:35.171Z,10.81
2018-04-11T02:23:35.095Z,10.68
2018-04-11T02:24:35.070Z,10.76
2018-04-11T02:25:36.446Z,10.74
2018-04-11T02:26:35.064Z,10.67
2018-04-11T02:27:35.158Z,10.78
2018-04-11T02:28:35.061Z,10.66
2018-04-11T02:29:35.138Z,10.71
2018-04-11T02:30:35.956Z,10.66
2018-04-11T02:31:34.991Z,10.66
2018-04-11T02:32:34.996Z,10.68
2018-04-11T02:33:34.968Z,10.70
2018-04-11T02:34:35.018Z,10.67
2018-04-11T02:35:35.010Z,10.70
2018-04-11T02:36:34.913Z,10.70
2018-04-11T02:37:34.947Z,10.76
2018-04-11T02:38:34.903Z,10.79
2018-04-11T02:39:34.909Z,10.81
2018-04-11T02:40:34.884Z,10.88
2018-04-11T02:41:34.866Z,10.82
2018-04-11T02:42:34.853Z,10.82
2018-04-11T02:43:34.873Z,10.91
2018-04-11T02:44:34.805Z,10.88
2018-04-11T02:45:34.851Z,10.86
2018-04-11T02:46:34.805Z,10.81
2018-04-11T02:47:34.802Z,10.84
2018-04-11T02:48:34.822Z,10.78
2018-04-11T02:49:35.371Z,10.76
2018-04-11T02:50:34.829Z,10.73
2018-04-11T02:51:34.740Z,10.68
2018-04-11T02:52:34.757Z,10.71
2018-04-11T02:53:34.712Z,10.66
2018-04-11T02:54:34.717Z,10.68
2018-04-11T02:55:34.672Z,10.63
2018-04-11T02:56:34.701Z,10.64
2018-04-11T02:57:34.663Z,10.55
2018-04-11T02:58:34.813Z,10.59
2018-04-11T02:59:34.773Z,10.52
2018-04-11T03:00:34.684Z,10.44
2018-04-11T03:01:34.610Z,10.51
2018-04-11T03:02:34.805Z,10.52
2018-04-11T03:03:34.581Z,10.55
2018-04-11T03:04:34.564Z,10.45
2018-04-11T03:05:34.548Z,10.44
2018-04-11T03:06:34.593Z,10.40
2018-04-11T03:07:34.531Z,10.38
2018-04-11T03:08:34.870Z,10.40
2018-04-11T03:09:34.583Z,10.44
2018-04-11T03:10:35.372Z,10.41
2018-04-11T03:11:34.497Z,10.41
2018-04-11T03:12:34.502Z,10.51
2018-04-11T03:13:34.456Z,10.55
2018-04-11T03:14:34.436Z,10.55
2018-04-11T03:15:34.426Z,10.55
2018-04-11T03:16:34.547Z,10.55
2018-04-11T03:17:34.515Z,10.40
2018-04-11T03:18:34.400Z,10.36
2018-04-11T03:19:34.374Z,10.30
2018-04-11T03:20:34.385Z,10.38
2018-04-11T03:21:34.388Z,10.40
2018-04-11T03:22:34.950Z,10.32
2018-04-11T03:23:34.371Z,10.34
2018-04-11T03:24:34.322Z,10.25
2018-04-11T03:25:34.307Z,10.23
2018-04-11T03:26:34.289Z,10.34
2018-04-11T03:27:34.271Z,10.40
2018-04-11T03:28:34.412Z,10.41
2018-04-11T03:29:34.275Z,10.40
2018-04-11T03:30:34.242Z,10.41
2018-04-11T03:31:34.222Z,10.48
2018-04-11T03:32:34.254Z,10.52
2018-04-11T03:33:34.224Z,10.44
2018-04-11T03:34:34.175Z,10.55
2018-04-11T03:35:34.198Z,10.55
2018-04-11T03:36:34.180Z,10.47
2018-04-11T03:37:34.136Z,10.48
2018-04-11T03:38:34.209Z,10.55
2018-04-11T03:39:34.131Z,10.56
2018-04-11T03:40:34.111Z,10.56
2018-04-11T03:41:34.103Z,10.60
2018-04-11T03:42:34.078Z,10.55
2018-04-11T03:43:34.058Z,10.63
2018-04-11T03:44:34.057Z,10.55
2018-04-11T03:45:34.030Z,10.56
2018-04-11T03:46:34.015Z,10.68
2018-04-11T03:47:34.027Z,10.63
2018-04-11T03:48:33.991Z,10.73
2018-04-11T03:49:34.377Z,10.59
2018-04-11T03:50:34.006Z,10.53
2018-04-11T03:51:33.995Z,10.60
2018-04-11T03:52:33.964Z,10.68
2018-04-11T03:53:33.923Z,10.63
2018-04-11T03:54:33.947Z,10.61
2018-04-11T03:55:33.966Z,10.64
2018-04-11T03:56:33.921Z,10.64
2018-04-11T03:57:33.899Z,10.60
2018-04-11T03:58:33.866Z,10.56
2018-04-11T03:59:33.870Z,10.53
2018-04-11T04:00:33.903Z,10.51
2018-04-11T04:01:33.858Z,10.44
2018-04-11T04:02:33.817Z,10.40
2018-04-11T04:03:33.818Z,10.23
2018-04-11T04:04:33.914Z,10.23
2018-04-11T04:05:33.788Z,10.22
2018-04-11T04:06:33.949Z,10.27
2018-04-11T04:07:33.784Z,10.30
2018-04-11T04:08:33.832Z,10.14
2018-04-11T04:09:33.754Z,10.23
2018-04-11T04:10:34.492Z,10.17
2018-04-11T04:11:33.740Z,10.22
2018-04-11T04:12:33.688Z,10.18
2018-04-11T04:13:34.438Z,10.20
2018-04-11T04:14:33.669Z,10.15
2018-04-11T04:15:33.659Z,10.14
2018-04-11T04:16:33.661Z,10.08
2018-04-11T04:17:33.631Z,10.15
2018-04-11T04:18:33.679Z,10.14
2018-04-11T04:19:33.605Z,10.22
2018-04-11T04:20:34.445Z,10.26
2018-04-11T04:21:33.608Z,10.29
2018-04-11T04:22:33.618Z,10.34
2018-04-11T04:23:33.601Z,10.40
2018-04-11T04:24:33.556Z,10.36
2018-04-11T04:25:33.522Z,10.36
2018-04-11T04:26:33.566Z,10.30
2018-04-11T04:27:33.520Z,10.30
2018-04-11T04:28:33.916Z,10.33
2018-04-11T04:29:33.563Z,10.34
2018-04-11T04:30:34.245Z,10.32
2018-04-11T04:31:34.555Z,10.36
2018-04-11T04:32:33.480Z,10.38
2018-04-11T04:33:33.439Z,10.32
2018-04-11T04:34:33.397Z,10.40
2018-04-11T04:35:33.429Z,10.34
2018-04-11T04:36:33.385Z,10.36
2018-04-11T04:37:33.348Z,10.32
2018-04-11T04:38:33.346Z,10.25
2018-04-11T04:39:33.344Z,10.11
2018-04-11T04:40:33.356Z,10.20
2018-04-11T04:41:33.314Z,10.30
2018-04-11T04:42:33.302Z,10.26
2018-04-11T04:43:33.354Z,10.22
2018-04-11T04:44:33.258Z,10.32
2018-04-11T04:45:33.244Z,10.32
2018-04-11T04:46:33.239Z,10.36
2018-04-11T04:47:33.266Z,10.27
2018-04-11T04:48:33.207Z,10.38
2018-04-11T04:49:33.220Z,10.27
2018-04-11T04:50:33.185Z,10.34
2018-04-11T04:51:33.180Z,10.23
2018-04-11T04:52:33.192Z,10.36
2018-04-11T04:53:33.159Z,10.36
2018-04-11T04:54:33.132Z,10.20
2018-04-11T04:55:33.195Z,10.22
2018-04-11T04:56:33.116Z,10.34
2018-04-11T04:57:33.094Z,10.36
2018-04-11T04:58:33.080Z,10.36
2018-04-11T04:59:33.093Z,10.42
2018-04-11T05:00:33.052Z,10.42
2018-04-11T05:01:33.063Z,10.53
2018-04-11T05:02:33.108Z,10.42
2018-04-11T05:03:33.039Z,10.47
2018-04-11T05:04:33.004Z,10.44
2018-04-11T05:05:32.998Z,10.53
2018-04-11T05:06:32.981Z,10.52
2018-04-11T05:07:32.993Z,10.60
2018-04-11T05:08:32.982Z,10.68
2018-04-11T05:09:32.940Z,10.59
2018-04-11T05:10:32.930Z,10.63
2018-04-11T05:11:32.927Z,10.74
2018-04-11T05:12:33.275Z,10.61
2018-04-11T05:13:32.903Z,10.61
2018-04-11T05:14:32.891Z,10.56
2018-04-11T05:15:32.880Z,10.71
2018-04-11T05:16:32.864Z,10.63
2018-04-11T05:17:32.843Z,10.56
2018-04-11T05:18:32.840Z,10.78
2018-04-11T05:19:32.823Z,10.73
2018-04-11T05:20:32.813Z,10.74
2018-04-11T05:21:32.807Z,10.82
2018-04-11T05:22:32.777Z,10.86
2018-04-11T05:23:32.849Z,10.82
2018-04-11T05:24:32.752Z,10.84
2018-04-11T05:25:32.755Z,10.96
2018-04-11T05:26:32.749Z,10.97
2018-04-11T05:27:32.719Z,10.91
2018-04-11T05:28:32.711Z,10.99
2018-04-11T05:29:32.717Z,10.92
2018-04-11T05:30:32.680Z,10.91
2018-04-11T05:31:32.662Z,10.86
2018-04-11T05:32:32.658Z,10.94
2018-04-11T05:33:32.639Z,10.91
2018-04-11T05:34:32.642Z,10.91
2018-04-11T05:35:32.617Z,10.97
2018-04-11T05:36:32.614Z,10.92
2018-04-11T05:37:32.627Z,10.97
2018-04-11T05:38:32.573Z,10.89
2018-04-11T05:39:32.942Z,10.94
2018-04-11T05:40:32.573Z,10.89
2018-04-11T05:41:32.562Z,10.71
2018-04-11T05:42:32.528Z,10.74
2018-04-11T05:43:32.529Z,10.61
2018-04-11T05:44:32.524Z,10.67
2018-04-11T05:45:32.499Z,10.61
2018-04-11T05:46:32.512Z,10.60
2018-04-11T05:47:32.463Z,10.60
2018-04-11T05:48:32.462Z,10.63
2018-04-11T05:49:32.435Z,10.56
2018-04-11T05:50:32.470Z,10.59
2018-04-11T05:51:32.415Z,10.76
2018-04-11T05:52:32.411Z,10.68
2018-04-11T05:53:32.392Z,10.79
2018-04-11T05:54:32.373Z,10.76
2018-04-11T05:55:32.385Z,10.84
2018-04-11T05:56:32.360Z,10.79
2018-04-11T05:57:32.350Z,10.73
2018-04-11T05:58:32.342Z,10.73
2018-04-11T05:59:32.318Z,10.74
2018-04-11T06:00:32.340Z,10.76
2018-04-11T06:01:32.293Z,10.70
2018-04-11T06:02:32.288Z,10.73
2018-04-11T06:03:32.263Z,10.76
2018-04-11T06:04:32.286Z,10.79
2018-04-11T06:05:32.274Z,10.78
2018-04-11T06:06:32.242Z,10.71
2018-04-11T06:07:32.225Z,10.61
2018-04-11T06:08:32.201Z,10.59
2018-04-11T06:09:32.200Z,10.59
2018-04-11T06:10:32.199Z,10.55
2018-04-11T06:11:32.175Z,10.52
2018-04-11T06:12:32.148Z,10.63
2018-04-11T06:13:32.152Z,10.56
2018-04-11T06:14:32.146Z,10.55
2018-04-11T06:15:32.156Z,10.61
2018-04-11T06:16:32.149Z,10.61
2018-04-11T06:17:32.103Z,10.60
2018-04-11T06:18:32.089Z,10.61
2018-04-11T06:19:32.067Z,10.67
2018-04-11T06:20:32.049Z,10.66
2018-04-11T06:21:32.087Z,10.53
2018-04-11T06:22:32.039Z,10.56
2018-04-11T06:23:32.010Z,10.70
2018-04-11T06:24:32.003Z,10.82
2018-04-11T06:25:32.001Z,10.88
2018-04-11T06:26:32.011Z,10.91
2018-04-11T06:27:31.988Z,11.02
2018-04-11T06:28:31.963Z,11.00
2018-04-11T06:29:31.975Z,11.14
2018-04-11T06:30:31.928Z,11.15
2018-04-11T06:31:31.923Z,11.15
2018-04-11T06:32:31.918Z,11.19
2018-04-11T06:33:31.894Z,11.18
2018-04-11T06:34:31.884Z,11.15
2018-04-11T06:35:31.909Z,11.19
2018-04-11T06:36:31.857Z,11.21
2018-04-11T06:37:31.873Z,11.27
2018-04-11T06:38:31.857Z,11.43
2018-04-11T06:39:31.821Z,11.52
2018-04-11T06:40:31.911Z,11.60
2018-04-11T06:41:31.814Z,11.52
2018-04-11T06:42:31.811Z,11.69
2018-04-11T06:43:31.801Z,11.64
2018-04-11T06:44:31.780Z,11.69
2018-04-11T06:45:31.761Z,11.61
2018-04-11T06:46:31.786Z,11.65
2018-04-11T06:47:31.749Z,11.52
2018-04-11T06:48:31.730Z,11.60
2018-04-11T06:49:31.714Z,11.64
2018-04-11T06:50:31.697Z,11.58
2018-04-11T06:51:31.757Z,11.61
2018-04-11T06:52:31.676Z,11.62
2018-04-11T06:53:31.655Z,11.70
2018-04-11T06:54:31.682Z,11.70
2018-04-11T06:55:31.636Z,11.75
2018-04-11T06:56:31.681Z,11.64
2018-04-11T06:57:31.631Z,11.76
2018-04-11T06:58:31.636Z,11.80
2018-04-11T06:59:31.601Z,11.78
2018-04-11T07:00:31.611Z,11.62
2018-04-11T07:01:31.597Z,11.62
2018-04-11T07:02:31.571Z,11.78
2018-04-11T07:03:31.929Z,11.80
2018-04-11T07:04:31.558Z,11.79
2018-04-11T07:05:31.518Z,11.82
2018-04-11T07:06:31.517Z,11.85
2018-04-11T07:07:31.514Z,11.88
2018-04-11T07:08:31.518Z,11.85
2018-04-11T07:09:31.507Z,11.82
2018-04-11T07:10:31.482Z,11.80
2018-04-11T07:11:31.471Z,11.95
2018-04-11T07:12:31.464Z,11.98
2018-04-11T07:13:31.431Z,11.90
2018-04-11T07:14:31.508Z,11.99
2018-04-11T07:15:31.420Z,11.99
2018-04-11T07:16:31.419Z,11.88
2018-04-11T07:17:31.395Z,11.79
2018-04-11T07:18:31.401Z,11.88
2018-04-11T07:19:31.368Z,11.98
2018-04-11T07:20:31.459Z,11.91
2018-04-11T07:21:31.365Z,11.98
2018-04-11T07:22:31.338Z,12.07
2018-04-11T07:23:31.338Z,12.12
2018-04-11T07:24:31.313Z,12.07
2018-04-11T07:25:31.320Z,12.12
2018-04-11T07:26:31.292Z,12.04
2018-04-11T07:27:31.295Z,12.14
2018-04-11T07:28:31.286Z,12.07
2018-04-11T07:29:31.271Z,12.14
2018-04-11T07:30:31.246Z,12.13
2018-04-11T07:31:31.263Z,12.12
2018-04-11T07:32:31.242Z,12.04
2018-04-11T07:33:31.234Z,11.94
2018-04-11T07:34:31.200Z,11.96
2018-04-11T07:35:31.233Z,11.96
2018-04-11T07:36:31.186Z,12.09
2018-04-11T07:37:31.189Z,12.17
2018-04-11T07:38:31.159Z,12.13
2018-04-11T07:39:31.168Z,12.20
2018-04-11T07:40:31.148Z,12.29
2018-04-11T07:41:31.151Z,12.23
2018-04-11T07:42:31.147Z,12.35
2018-04-11T07:43:31.179Z,12.47
2018-04-11T07:44:31.113Z,12.54
2018-04-11T07:45:31.103Z,12.70
2018-04-11T07:46:31.079Z,12.67
2018-04-11T07:47:31.090Z,12.68
2018-04-11T07:48:31.057Z,12.70
2018-04-11T07:49:31.074Z,12.60
2018-04-11T07:50:31.039Z,12.56
2018-04-11T07:51:31.048Z,12.57
2018-04-11T07:52:31.020Z,12.52
2018-04-11T07:53:31.031Z,12.60
2018-04-11T07:54:31.041Z,12.54
2018-04-11T07:55:31.001Z,12.52
2018-04-11T07:56:30.981Z,12.45
2018-04-11T07:57:30.991Z,12.32
2018-04-11T07:58:30.984Z,12.23
2018-04-11T07:59:30.949Z,12.35
2018-04-11T08:00:30.970Z,12.35
2018-04-11T08:01:31.639Z,12.38
2018-04-11T08:02:31.477Z,12.35
2018-04-11T08:03:31.465Z,12.37
2018-04-11T08:04:31.628Z,12.38
2018-04-11T08:05:30.895Z,12.46
2018-04-11T08:06:30.898Z,12.37
2018-04-11T08:07:30.887Z,12.45
2018-04-11T08:08:30.912Z,12.27
2018-04-11T08:09:30.893Z,12.35
2018-04-11T08:10:30.849Z,12.38
2018-04-11T08:11:30.837Z,12.32
2018-04-11T08:12:30.840Z,12.31
2018-04-11T08:13:30.823Z,12.23
2018-04-11T08:14:30.856Z,12.19
2018-04-11T08:15:30.795Z,12.34
2018-04-11T08:16:30.803Z,12.37
2018-04-11T08:17:30.797Z,12.42
2018-04-11T08:18:30.761Z,12.46
2018-04-11T08:19:30.780Z,12.47
2018-04-11T08:20:30.745Z,12.59
2018-04-11T08:21:30.767Z,12.59
2018-04-11T08:22:30.735Z,12.57
2018-04-11T08:23:30.738Z,12.68
2018-04-11T08:24:30.710Z,12.75
2018-04-11T08:25:30.733Z,12.79
2018-04-11T08:26:30.684Z,12.82
2018-04-11T08:27:30.721Z,12.82
2018-04-11T08:28:30.685Z,12.93
2018-04-11T08:29:31.005Z,12.95
2018-04-11T08:30:30.650Z,12.82
2018-04-11T08:31:30.717Z,12.93
2018-04-11T08:32:30.646Z,12.93
2018-04-11T08:33:30.632Z,12.92
2018-04-11T08:34:30.628Z,13.05
2018-04-11T08:35:30.625Z,13.11
2018-04-11T08:36:30.595Z,13.22
2018-04-11T08:37:30.619Z,13.46
2018-04-11T08:38:30.577Z,13.51
2018-04-11T08:39:30.567Z,13.46
2018-04-11T08:40:30.564Z,13.51
2018-04-11T08:41:30.547Z,13.49
2018-04-11T08:42:30.537Z,13.48
2018-04-11T08:43:30.541Z,13.51
2018-04-11T08:44:30.532Z,13.71
2018-04-11T08:45:30.554Z,13.66
2018-04-11T08:46:30.512Z,13.77
2018-04-11T08:47:30.540Z,13.97
2018-04-11T08:48:30.482Z,14.14
2018-04-11T08:49:30.485Z,14.20
2018-04-11T08:50:30.477Z,14.20
2018-04-11T08:51:30.479Z,14.22
2018-04-11T08:52:30.504Z,14.18
2018-04-11T08:53:30.442Z,14.22
2018-04-11T08:54:30.437Z,14.27
2018-04-11T08:55:30.454Z,14.33
2018-04-11T08:56:30.415Z,14.33
2018-04-11T08:57:30.476Z,14.32
2018-04-11T08:58:30.407Z,14.43
2018-04-11T08:59:30.418Z,14.64
2018-04-11T09:00:30.397Z,14.68
2018-04-11T09:01:30.395Z,14.68
2018-04-11T09:02:30.384Z,14.65
2018-04-11T09:03:30.385Z,14.54
2018-04-11T09:04:30.476Z,14.70
2018-04-11T09:05:30.370Z,14.65
2018-04-11T09:06:30.362Z,14.81
2018-04-11T09:07:30.358Z,14.86
2018-04-11T09:08:30.343Z,14.88
2018-04-11T09:09:30.325Z,14.81
2018-04-11T09:10:30.333Z,14.83
2018-04-11T09:11:30.326Z,14.86
2018-04-11T09:12:30.322Z,14.81
2018-04-11T09:13:30.298Z,14.72
2018-04-11T09:14:30.301Z,14.69
2018-04-11T09:15:30.291Z,14.64
2018-04-11T09:16:30.328Z,14.84
2018-04-11T09:17:30.263Z,14.78
2018-04-11T09:18:30.292Z,14.65
2018-04-11T09:19:30.253Z,14.75
2018-04-11T09:20:30.258Z,14.73
2018-04-11T09:21:30.259Z,14.61
2018-04-11T09:22:30.251Z,14.54
2018-04-11T09:23:30.224Z,14.64
2018-04-11T09:24:30.213Z,14.62
2018-04-11T09:25:30.220Z,14.95
2018-04-11T09:26:30.276Z,14.98
2018-04-11T09:27:30.203Z,15.03
2018-04-11T09:28:30.204Z,15.09
2018-04-11T09:29:30.178Z,15.23
2018-04-11T09:30:30.176Z,15.34
2018-04-11T09:31:30.182Z,15.54
2018-04-11T09:32:30.181Z,15.65
2018-04-11T09:33:30.167Z,15.65
2018-04-11T09:34:30.151Z,15.46
2018-04-11T09:35:30.157Z,15.31
2018-04-11T09:36:30.187Z,15.35
2018-04-11T09:37:30.133Z,15.50
2018-04-11T09:38:30.136Z,15.62
2018-04-11T09:39:30.131Z,15.68
2018-04-11T09:40:30.127Z,15.78
2018-04-11T09:41:30.126Z,15.84
2018-04-11T09:42:30.114Z,15.92
2018-04-11T09:43:30.112Z,15.90
2018-04-11T09:44:30.128Z,16.00
2018-04-11T09:45:30.134Z,16.07
2018-04-11T09:46:30.111Z,16.11
2018-04-11T09:47:30.084Z,16.14
2018-04-11T09:48:30.082Z,16.11
2018-04-11T09:49:30.076Z,16.01
2018-04-11T09:50:30.466Z,15.78
2018-04-11T09:51:30.076Z,15.67
2018-04-11T09:52:30.084Z,15.51
2018-04-11T09:53:30.066Z,15.49
2018-04-11T09:54:30.064Z,15.46
2018-04-11T09:55:30.058Z,15.51
2018-04-11T09:56:30.134Z,15.46
2018-04-11T09:57:30.067Z,15.69
2018-04-11T09:58:30.065Z,15.68
2018-04-11T09:59:30.047Z,15.65
2018-04-11T10:00:30.038Z,15.65
2018-04-11T10:01:30.047Z,15.53
2018-04-11T10:02:30.072Z,15.60
2018-04-11T10:03:30.025Z,15.65
2018-04-11T10:04:30.008Z,15.72
2018-04-11T10:05:30.018Z,15.72
2018-04-11T10:06:30.000Z,15.90
2018-04-11T10:07:30.032Z,15.87
2018-04-11T10:08:30.014Z,15.97
2018-04-11T10:09:30.004Z,16.00
2018-04-11T10:10:29.979Z,16.14
2018-04-11T10:11:30.000Z,16.15
2018-04-11T10:12:29.976Z,16.20
2018-04-11T10:13:30.025Z,16.34
2018-04-11T10:14:29.988Z,16.50
2018-04-11T10:15:29.963Z,16.67
2018-04-11T10:16:29.957Z,16.66
2018-04-11T10:17:29.952Z,16.68
2018-04-11T10:18:29.965Z,16.73
2018-04-11T10:19:29.972Z,16.91
2018-04-11T10:20:29.947Z,16.94
2018-04-11T10:21:29.950Z,17.14
2018-04-11T10:22:29.954Z,17.30
2018-04-11T10:23:29.970Z,17.22
2018-04-11T10:24:29.969Z,17.14
2018-04-11T10:25:29.948Z,17.01
2018-04-11T10:26:29.940Z,17.06
2018-04-11T10:27:29.931Z,16.97
2018-04-11T10:28:29.930Z,17.01
2018-04-11T10:29:29.938Z,17.16
2018-04-11T10:30:29.992Z,17.06
2018-04-11T10:31:29.922Z,16.97
2018-04-11T10:32:29.912Z,16.78
2018-04-11T10:33:29.929Z,16.88
2018-04-11T10:34:29.928Z,16.94
2018-04-11T10:35:29.938Z,16.93
2018-04-11T10:36:29.925Z,17.06
2018-04-11T10:37:29.916Z,17.30
2018-04-11T10:38:29.928Z,17.44
2018-04-11T10:39:29.895Z,17.49
2018-04-11T10:40:29.939Z,17.70
2018-04-11T10:41:29.942Z,17.62
2018-04-11T10:42:29.921Z,17.38
2018-04-11T10:43:29.918Z,17.43
2018-04-11T10:44:29.891Z,17.40
2018-04-11T10:45:29.886Z,17.40
2018-04-11T10:46:29.905Z,17.55
2018-04-11T10:47:29.904Z,17.68
2018-04-11T10:48:29.893Z,17.92
2018-04-11T10:49:29.893Z,18.21
2018-04-11T10:50:29.907Z,18.39
2018-04-11T10:51:29.914Z,18.37
2018-04-11T10:52:29.881Z,18.25
2018-04-11T10:53:29.881Z,18.08
2018-04-11T10:54:29.865Z,18.00
2018-04-11T10:55:29.865Z,18.07
2018-04-11T10:56:29.945Z,17.90
2018-04-11T10:57:29.873Z,17.87
2018-04-11T10:58:29.874Z,17.72
2018-04-11T10:59:29.851Z,17.71
2018-04-11T11:00:29.865Z,17.72
2018-04-11T11:01:29.871Z,17.95
2018-04-11T11:02:29.938Z,17.95
2018-04-11T11:03:29.857Z,17.95
2018-04-11T11:04:29.841Z,17.96
2018-04-11T11:05:29.849Z,18.05
2018-04-11T11:06:29.868Z,18.20
2018-04-11T11:07:30.556Z,18.33
2018-04-11T11:08:29.865Z,18.50
2018-04-11T11:09:29.877Z,18.67
2018-04-11T11:10:29.826Z,18.81
2018-04-11T11:11:29.849Z,18.91
2018-04-11T11:12:29.836Z,18.92
2018-04-11T11:13:29.834Z,18.98
2018-04-11T11:14:30.014Z,18.69
2018-04-11T11:15:29.827Z,18.48
2018-04-11T11:16:29.833Z,18.33
2018-04-11T11:17:29.810Z,18.21
2018-04-11T11:18:29.813Z,18.10
2018-04-11T11:19:29.813Z,18.08
2018-04-11T11:20:29.837Z,18.15
2018-04-11T11:21:29.811Z,17.99
2018-04-11T11:22:29.827Z,17.99
2018-04-11T11:23:29.823Z,18.07
2018-04-11T11:24:29.818Z,18.23
2018-04-11T11:25:29.825Z,18.35
2018-04-11T11:26:29.830Z,18.51
2018-04-11T11:27:29.824Z,18.69
2018-04-11T11:28:29.808Z,18.92
2018-04-11T11:29:29.791Z,19.19
2018-04-11T11:30:29.787Z,19.37
2018-04-11T11:31:29.798Z,19.32
2018-04-11T11:32:29.834Z,19.29
2018-04-11T11:33:29.825Z,19.44
2018-04-11T11:34:29.779Z,19.44
2018-04-11T11:35:29.800Z,19.36
2018-04-11T11:36:29.773Z,19.29
2018-04-11T11:37:29.828Z,19.21
2018-04-11T11:38:29.800Z,19.16
2018-04-11T11:39:29.785Z,19.22
2018-04-11T11:40:29.789Z,19.28
2018-04-11T11:41:30.127Z,19.29
2018-04-11T11:42:29.769Z,19.32
2018-04-11T11:43:29.766Z,19.39
2018-04-11T11:44:29.771Z,19.48
2018-04-11T11:45:29.757Z,19.78
2018-04-11T11:46:29.774Z,19.92
2018-04-11T11:47:29.840Z,20.17
2018-04-11T11:48:29.785Z,20.35
2018-04-11T11:49:29.767Z,20.43
2018-04-11T11:50:29.767Z,20.57
2018-04-11T11:51:29.772Z,20.64
2018-04-11T11:52:29.764Z,20.72
2018-04-11T11:53:29.764Z,20.62
2018-04-11T11:54:29.785Z,20.41
2018-04-11T11:55:29.748Z,20.41
2018-04-11T11:56:29.750Z,20.11
2018-04-11T11:57:29.766Z,19.83
2018-04-11T11:58:29.778Z,19.58
2018-04-11T11:59:29.779Z,19.47
2018-04-11T12:00:29.767Z,19.61
2018-04-11T12:01:29.763Z,19.62
2018-04-11T12:02:29.761Z,19.66
2018-04-11T12:03:29.744Z,19.76
2018-04-11T12:04:29.757Z,19.76
2018-04-11T12:05:29.771Z,19.88
2018-04-11T12:06:29.748Z,19.88
2018-04-11T12:07:29.744Z,19.94
2018-04-11T12:08:29.735Z,19.95
2018-04-11T12:09:29.786Z,20.01
2018-04-11T12:10:29.738Z,20.01
2018-04-11T12:11:29.811Z,20.10
2018-04-11T12:12:29.737Z,20.14
2018-04-11T12:13:29.755Z,20.31
2018-04-11T12:14:29.741Z,20.32
2018-04-11T12:15:29.730Z,20.33
2018-04-11T12:16:29.725Z,20.21
2018-04-11T12:17:29.751Z,20.36
2018-04-11T12:18:29.746Z,20.21
2018-04-11T12:19:29.724Z,20.23
2018-04-11T12:20:29.751Z,20.33
2018-04-11T12:21:29.743Z,20.32
2018-04-11T12:22:29.734Z,20.35
2018-04-11T12:23:29.713Z,20.39
2018-04-11T12:24:29.731Z,20.80
2018-04-11T12:25:29.726Z,21.14
2018-04-11T12:26:29.739Z,21.47
2018-04-11T12:27:29.735Z,21.64
2018-04-11T12:28:29.801Z,21.53
2018-04-11T12:29:30.044Z,21.44
2018-04-11T12:30:29.717Z,21.49
2018-04-11T12:31:29.737Z,21.35
2018-04-11T12:32:29.733Z,21.31
2018-04-11T12:33:29.738Z,21.21
2018-04-11T12:34:29.717Z,21.32
2018-04-11T12:35:29.718Z,21.47
2018-04-11T12:36:29.720Z,21.71
2018-04-11T12:37:29.726Z,21.75
2018-04-11T12:38:29.849Z,21.71
2018-04-11T12:39:29.832Z,21.67
2018-04-11T12:40:29.724Z,21.74
2018-04-11T12:41:29.738Z,21.69
2018-04-11T12:42:29.800Z,21.54
2018-04-11T12:43:29.777Z,21.34
2018-04-11T12:44:29.789Z,21.29
2018-04-11T12:45:30.098Z,21.38
2018-04-11T12:46:29.742Z,21.47
2018-04-11T12:47:29.750Z,21.40
2018-04-11T12:48:29.739Z,21.40
2018-04-11T12:49:29.797Z,21.14
2018-04-11T12:50:29.748Z,21.12
2018-04-11T12:51:29.794Z,21.31
2018-04-11T12:52:29.753Z,21.34